sensor_id;sensor_type;location;lat;lon;timestamp;temperature;humidity
1626;DHT22;806;48.770;9.156;2024-03-02T00:00:54;7.40;42.90
1626;DHT22;806;48.770;9.156;2024-03-02T00:03:20;7.40;42.60
1626;DHT22;806;48.770;9.156;2024-03-02T00:05:51;7.30;46.00
1626;DHT22;806;48.770;9.156;2024-03-02T00:08:23;7.30;42.30
1626;DHT22;806;48.770;9.156;2024-03-02T00:10:52;7.30;43.50
1626;DHT22;806;48.770;9.156;2024-03-02T00:13:23;7.30;50.10
1626;DHT22;806;48.770;9.156;2024-03-02T00:15:54;7.30;44.40
1626;DHT22;806;48.770;9.156;2024-03-02T00:18:25;7.30;45.80
1626;DHT22;806;48.770;9.156;2024-03-02T00:20:54;7.30;48.90
1626;DHT22;806;48.770;9.156;2024-03-02T00:23:23;7.30;41.70
1626;DHT22;806;48.770;9.156;2024-03-02T00:25:51;7.30;37.60
1626;DHT22;806;48.770;9.156;2024-03-02T00:28:21;7.30;41.90
1626;DHT22;806;48.770;9.156;2024-03-02T00:31:07;7.30;34.70
1626;DHT22;806;48.770;9.156;2024-03-02T00:33:35;7.20;39.60
1626;DHT22;806;48.770;9.156;2024-03-02T00:36:03;7.20;40.50
1626;DHT22;806;48.770;9.156;2024-03-02T00:38:32;7.20;43.40
1626;DHT22;806;48.770;9.156;2024-03-02T00:41:00;7.20;38.20
1626;DHT22;806;48.770;9.156;2024-03-02T00:43:45;7.20;43.00
1626;DHT22;806;48.770;9.156;2024-03-02T00:46:17;7.20;31.50
1626;DHT22;806;48.770;9.156;2024-03-02T00:48:53;7.10;31.80
1626;DHT22;806;48.770;9.156;2024-03-02T00:51:21;7.10;36.80
1626;DHT22;806;48.770;9.156;2024-03-02T00:53:48;7.10;33.90
1626;DHT22;806;48.770;9.156;2024-03-02T00:56:19;7.10;30.30
1626;DHT22;806;48.770;9.156;2024-03-02T00:58:46;7.10;32.70
1626;DHT22;806;48.770;9.156;2024-03-02T01:01:15;7.10;25.40
1626;DHT22;806;48.770;9.156;2024-03-02T01:03:42;7.10;28.20
1626;DHT22;806;48.770;9.156;2024-03-02T01:06:09;7.10;28.00
1626;DHT22;806;48.770;9.156;2024-03-02T01:08:36;7.10;27.90
1626;DHT22;806;48.770;9.156;2024-03-02T01:11:03;7.10;17.90
1626;DHT22;806;48.770;9.156;2024-03-02T01:13:30;7.10;17.50
1626;DHT22;806;48.770;9.156;2024-03-02T01:15:57;7.10;25.90
1626;DHT22;806;48.770;9.156;2024-03-02T01:18:26;7.10;14.80
1626;DHT22;806;48.770;9.156;2024-03-02T01:20:53;7.20;12.10
1626;DHT22;806;48.770;9.156;2024-03-02T01:23:21;7.20;10.90
1626;DHT22;806;48.770;9.156;2024-03-02T01:25:49;7.20;10.00
1626;DHT22;806;48.770;9.156;2024-03-02T01:28:16;7.20;8.70
1626;DHT22;806;48.770;9.156;2024-03-02T01:30:44;7.10;7.10
1626;DHT22;806;48.770;9.156;2024-03-02T01:33:10;7.10;5.90
1626;DHT22;806;48.770;9.156;2024-03-02T01:35:39;7.00;12.00
1626;DHT22;806;48.770;9.156;2024-03-02T01:38:06;7.00;13.10
1626;DHT22;806;48.770;9.156;2024-03-02T01:40:33;6.90;20.80
1626;DHT22;806;48.770;9.156;2024-03-02T01:43:00;6.90;20.40
1626;DHT22;806;48.770;9.156;2024-03-02T01:45:28;6.90;27.90
1626;DHT22;806;48.770;9.156;2024-03-02T01:47:55;6.90;28.30
1626;DHT22;806;48.770;9.156;2024-03-02T01:50:27;6.90;27.90
1626;DHT22;806;48.770;9.156;2024-03-02T01:52:55;6.90;25.40
1626;DHT22;806;48.770;9.156;2024-03-02T01:55:23;6.80;21.70
1626;DHT22;806;48.770;9.156;2024-03-02T01:57:50;6.80;23.90
1626;DHT22;806;48.770;9.156;2024-03-02T02:00:18;6.80;19.20
1626;DHT22;806;48.770;9.156;2024-03-02T02:02:45;6.80;27.50
1626;DHT22;806;48.770;9.156;2024-03-02T02:05:12;6.80;23.90
1626;DHT22;806;48.770;9.156;2024-03-02T02:07:40;6.70;26.20
1626;DHT22;806;48.770;9.156;2024-03-02T02:10:09;6.80;27.20
1626;DHT22;806;48.770;9.156;2024-03-02T02:12:37;6.70;34.30
1626;DHT22;806;48.770;9.156;2024-03-02T02:15:04;6.70;37.40
1626;DHT22;806;48.770;9.156;2024-03-02T02:17:47;6.60;42.30
1626;DHT22;806;48.770;9.156;2024-03-02T02:20:15;6.60;47.50
1626;DHT22;806;48.770;9.156;2024-03-02T02:22:54;6.50;56.80
1626;DHT22;806;48.770;9.156;2024-03-02T02:25:21;6.50;56.80
1626;DHT22;806;48.770;9.156;2024-03-02T02:27:48;6.50;59.30
1626;DHT22;806;48.770;9.156;2024-03-02T02:30:19;6.40;75.10
1626;DHT22;806;48.770;9.156;2024-03-02T02:32:46;6.40;81.60
1626;DHT22;806;48.770;9.156;2024-03-02T02:35:13;6.40;76.90
1626;DHT22;806;48.770;9.156;2024-03-02T02:37:40;6.40;79.70
1626;DHT22;806;48.770;9.156;2024-03-02T02:40:10;6.50;83.50
1626;DHT22;806;48.770;9.156;2024-03-02T02:42:37;6.40;87.20
1626;DHT22;806;48.770;9.156;2024-03-02T02:45:04;6.40;91.70
1626;DHT22;806;48.770;9.156;2024-03-02T02:47:31;6.40;87.30
1626;DHT22;806;48.770;9.156;2024-03-02T02:50:00;6.30;94.10
1626;DHT22;806;48.770;9.156;2024-03-02T02:52:31;6.40;91.20
1626;DHT22;806;48.770;9.156;2024-03-02T02:54:59;6.40;92.30
1626;DHT22;806;48.770;9.156;2024-03-02T02:57:27;6.40;91.10
1626;DHT22;806;48.770;9.156;2024-03-02T03:00:01;6.40;90.30
1626;DHT22;806;48.770;9.156;2024-03-02T03:02:29;6.40;91.10
1626;DHT22;806;48.770;9.156;2024-03-02T03:04:56;6.40;93.20
1626;DHT22;806;48.770;9.156;2024-03-02T03:07:23;6.40;94.40
1626;DHT22;806;48.770;9.156;2024-03-02T03:09:51;6.40;92.70
1626;DHT22;806;48.770;9.156;2024-03-02T03:12:18;6.40;91.70
1626;DHT22;806;48.770;9.156;2024-03-02T03:14:47;6.40;93.10
1626;DHT22;806;48.770;9.156;2024-03-02T03:17:14;6.40;94.00
1626;DHT22;806;48.770;9.156;2024-03-02T03:19:41;6.40;92.70
1626;DHT22;806;48.770;9.156;2024-03-02T03:22:07;6.40;92.00
1626;DHT22;806;48.770;9.156;2024-03-02T03:24:34;6.40;93.10
1626;DHT22;806;48.770;9.156;2024-03-02T03:27:01;6.40;90.80
1626;DHT22;806;48.770;9.156;2024-03-02T03:29:28;6.40;87.70
1626;DHT22;806;48.770;9.156;2024-03-02T03:31:56;6.30;91.10
1626;DHT22;806;48.770;9.156;2024-03-02T03:34:23;6.30;91.70
1626;DHT22;806;48.770;9.156;2024-03-02T03:36:50;6.30;93.70
1626;DHT22;806;48.770;9.156;2024-03-02T03:39:17;6.30;97.20
1626;DHT22;806;48.770;9.156;2024-03-02T03:41:47;6.30;99.60
1626;DHT22;806;48.770;9.156;2024-03-02T03:44:14;6.30;99.90
1626;DHT22;806;48.770;9.156;2024-03-02T03:46:41;6.30;99.90
1626;DHT22;806;48.770;9.156;2024-03-02T03:49:09;6.30;99.90
1626;DHT22;806;48.770;9.156;2024-03-02T03:51:36;6.40;98.10
1626;DHT22;806;48.770;9.156;2024-03-02T03:54:03;6.40;96.20
1626;DHT22;806;48.770;9.156;2024-03-02T03:56:30;6.40;95.70
1626;DHT22;806;48.770;9.156;2024-03-02T03:58:56;6.40;95.50
1626;DHT22;806;48.770;9.156;2024-03-02T04:01:25;6.40;93.40
1626;DHT22;806;48.770;9.156;2024-03-02T04:03:52;6.40;93.50
1626;DHT22;806;48.770;9.156;2024-03-02T04:06:20;6.40;94.80
1626;DHT22;806;48.770;9.156;2024-03-02T04:08:47;6.50;93.10
1626;DHT22;806;48.770;9.156;2024-03-02T04:11:14;6.50;91.00
1626;DHT22;806;48.770;9.156;2024-03-02T04:13:41;6.50;88.30
1626;DHT22;806;48.770;9.156;2024-03-02T04:16:08;6.50;85.00
1626;DHT22;806;48.770;9.156;2024-03-02T04:18:35;6.50;89.00
1626;DHT22;806;48.770;9.156;2024-03-02T04:21:02;6.50;86.80
1626;DHT22;806;48.770;9.156;2024-03-02T04:23:30;6.50;84.50
1626;DHT22;806;48.770;9.156;2024-03-02T04:25:57;6.50;80.60
1626;DHT22;806;48.770;9.156;2024-03-02T04:28:24;6.50;74.80
1626;DHT22;806;48.770;9.156;2024-03-02T04:30:51;6.40;72.20
1626;DHT22;806;48.770;9.156;2024-03-02T04:33:18;6.40;66.00
1626;DHT22;806;48.770;9.156;2024-03-02T04:35:45;6.40;54.80
1626;DHT22;806;48.770;9.156;2024-03-02T04:38:15;6.30;56.70
1626;DHT22;806;48.770;9.156;2024-03-02T04:40:44;6.30;57.50
1626;DHT22;806;48.770;9.156;2024-03-02T04:43:11;6.30;69.30
1626;DHT22;806;48.770;9.156;2024-03-02T04:45:41;6.30;89.20
1626;DHT22;806;48.770;9.156;2024-03-02T04:48:08;6.30;97.30
1626;DHT22;806;48.770;9.156;2024-03-02T04:50:35;6.30;98.70
1626;DHT22;806;48.770;9.156;2024-03-02T04:53:02;6.30;98.60
1626;DHT22;806;48.770;9.156;2024-03-02T04:55:29;6.30;98.00
1626;DHT22;806;48.770;9.156;2024-03-02T04:58:23;6.20;96.90
1626;DHT22;806;48.770;9.156;2024-03-02T05:00:53;6.20;97.60
1626;DHT22;806;48.770;9.156;2024-03-02T05:03:20;6.20;96.80
1626;DHT22;806;48.770;9.156;2024-03-02T05:05:46;6.20;99.70
1626;DHT22;806;48.770;9.156;2024-03-02T05:08:13;6.10;99.90
1626;DHT22;806;48.770;9.156;2024-03-02T05:10:42;6.10;99.90
1626;DHT22;806;48.770;9.156;2024-03-02T05:13:09;6.10;99.90
1626;DHT22;806;48.770;9.156;2024-03-02T05:15:36;6.10;99.90
1626;DHT22;806;48.770;9.156;2024-03-02T05:18:04;6.10;99.90
1626;DHT22;806;48.770;9.156;2024-03-02T05:20:32;6.10;99.90
1626;DHT22;806;48.770;9.156;2024-03-02T05:22:59;6.10;99.90
1626;DHT22;806;48.770;9.156;2024-03-02T05:25:26;6.10;99.90
1626;DHT22;806;48.770;9.156;2024-03-02T05:27:53;6.10;99.90
1626;DHT22;806;48.770;9.156;2024-03-02T05:30:20;6.10;99.10
1626;DHT22;806;48.770;9.156;2024-03-02T05:32:49;6.00;99.70
1626;DHT22;806;48.770;9.156;2024-03-02T05:35:16;6.00;99.90
1626;DHT22;806;48.770;9.156;2024-03-02T05:37:44;6.00;99.90
1626;DHT22;806;48.770;9.156;2024-03-02T05:40:11;6.00;98.60
1626;DHT22;806;48.770;9.156;2024-03-02T05:42:38;6.00;97.20
1626;DHT22;806;48.770;9.156;2024-03-02T05:45:07;6.00;99.90
1626;DHT22;806;48.770;9.156;2024-03-02T05:47:34;6.00;99.90
1626;DHT22;806;48.770;9.156;2024-03-02T05:50:03;6.00;99.90
1626;DHT22;806;48.770;9.156;2024-03-02T05:52:30;6.00;99.90
1626;DHT22;806;48.770;9.156;2024-03-02T05:54:57;6.00;99.90
1626;DHT22;806;48.770;9.156;2024-03-02T05:57:24;6.00;99.90
1626;DHT22;806;48.770;9.156;2024-03-02T06:00:11;6.00;99.90
1626;DHT22;806;48.770;9.156;2024-03-02T06:02:39;6.00;99.90
1626;DHT22;806;48.770;9.156;2024-03-02T06:05:07;6.10;99.90
1626;DHT22;806;48.770;9.156;2024-03-02T06:07:34;6.10;99.90
1626;DHT22;806;48.770;9.156;2024-03-02T06:10:01;6.10;99.90
1626;DHT22;806;48.770;9.156;2024-03-02T06:12:30;6.10;99.90
1626;DHT22;806;48.770;9.156;2024-03-02T06:14:57;6.10;97.80
1626;DHT22;806;48.770;9.156;2024-03-02T06:17:24;6.10;98.80
1626;DHT22;806;48.770;9.156;2024-03-02T06:19:51;6.00;99.00
1626;DHT22;806;48.770;9.156;2024-03-02T06:22:20;6.00;99.90
1626;DHT22;806;48.770;9.156;2024-03-02T06:24:48;6.00;99.90
1626;DHT22;806;48.770;9.156;2024-03-02T06:27:15;6.00;99.90
1626;DHT22;806;48.770;9.156;2024-03-02T06:29:42;6.00;99.90
1626;DHT22;806;48.770;9.156;2024-03-02T06:32:09;6.10;99.90
1626;DHT22;806;48.770;9.156;2024-03-02T06:34:36;6.10;99.90
1626;DHT22;806;48.770;9.156;2024-03-02T06:37:03;6.20;99.90
1626;DHT22;806;48.770;9.156;2024-03-02T06:39:31;6.20;99.90
1626;DHT22;806;48.770;9.156;2024-03-02T06:41:59;6.30;92.70
1626;DHT22;806;48.770;9.156;2024-03-02T06:44:27;6.30;94.00
1626;DHT22;806;48.770;9.156;2024-03-02T06:46:53;6.40;81.80
1626;DHT22;806;48.770;9.156;2024-03-02T06:49:20;6.40;72.60
1626;DHT22;806;48.770;9.156;2024-03-02T06:51:47;6.40;77.50
1626;DHT22;806;48.770;9.156;2024-03-02T06:54:15;6.40;73.20
1626;DHT22;806;48.770;9.156;2024-03-02T06:56:46;6.40;66.40
1626;DHT22;806;48.770;9.156;2024-03-02T06:59:13;6.40;77.70
1626;DHT22;806;48.770;9.156;2024-03-02T07:01:40;6.50;59.20
1626;DHT22;806;48.770;9.156;2024-03-02T07:04:07;6.50;55.10
1626;DHT22;806;48.770;9.156;2024-03-02T07:06:33;6.50;47.50
1626;DHT22;806;48.770;9.156;2024-03-02T07:09:00;6.50;53.00
1626;DHT22;806;48.770;9.156;2024-03-02T07:11:27;6.50;55.30
1626;DHT22;806;48.770;9.156;2024-03-02T07:13:55;6.50;53.20
1626;DHT22;806;48.770;9.156;2024-03-02T07:16:22;6.50;53.40
1626;DHT22;806;48.770;9.156;2024-03-02T07:18:54;6.60;54.20
1626;DHT22;806;48.770;9.156;2024-03-02T07:21:22;6.60;44.60
1626;DHT22;806;48.770;9.156;2024-03-02T07:23:49;6.70;36.20
1626;DHT22;806;48.770;9.156;2024-03-02T07:26:16;6.70;33.80
1626;DHT22;806;48.770;9.156;2024-03-02T07:28:43;6.70;30.20
1626;DHT22;806;48.770;9.156;2024-03-02T07:31:12;6.70;22.90
1626;DHT22;806;48.770;9.156;2024-03-02T07:33:39;6.80;21.60
1626;DHT22;806;48.770;9.156;2024-03-02T07:36:06;6.90;20.80
1626;DHT22;806;48.770;9.156;2024-03-02T07:38:33;7.10;6.20
1626;DHT22;806;48.770;9.156;2024-03-02T07:41:01;7.10;1.00
1626;DHT22;806;48.770;9.156;2024-03-02T07:43:28;7.10;1.00
1626;DHT22;806;48.770;9.156;2024-03-02T07:45:55;7.10;1.00
1626;DHT22;806;48.770;9.156;2024-03-02T07:48:24;7.10;1.00
1626;DHT22;806;48.770;9.156;2024-03-02T07:50:51;7.20;1.00
1626;DHT22;806;48.770;9.156;2024-03-02T07:53:17;7.20;1.00
1626;DHT22;806;48.770;9.156;2024-03-02T07:55:44;7.20;1.00
1626;DHT22;806;48.770;9.156;2024-03-02T07:58:11;7.30;1.00
1626;DHT22;806;48.770;9.156;2024-03-02T08:00:39;7.40;1.00
1626;DHT22;806;48.770;9.156;2024-03-02T08:03:06;7.30;1.00
1626;DHT22;806;48.770;9.156;2024-03-02T08:05:36;7.40;1.00
1626;DHT22;806;48.770;9.156;2024-03-02T08:08:04;7.40;1.00
1626;DHT22;806;48.770;9.156;2024-03-02T08:10:31;7.40;1.00
1626;DHT22;806;48.770;9.156;2024-03-02T08:12:59;7.30;1.00
1626;DHT22;806;48.770;9.156;2024-03-02T08:15:26;7.20;1.00
1626;DHT22;806;48.770;9.156;2024-03-02T08:17:53;7.20;1.00
1626;DHT22;806;48.770;9.156;2024-03-02T08:20:21;7.20;1.00
1626;DHT22;806;48.770;9.156;2024-03-02T08:22:50;7.20;1.00
1626;DHT22;806;48.770;9.156;2024-03-02T08:25:17;7.20;1.00
1626;DHT22;806;48.770;9.156;2024-03-02T08:27:44;7.20;1.00
1626;DHT22;806;48.770;9.156;2024-03-02T08:30:12;7.30;1.00
1626;DHT22;806;48.770;9.156;2024-03-02T08:32:39;7.40;1.00
1626;DHT22;806;48.770;9.156;2024-03-02T08:35:09;7.40;1.00
1626;DHT22;806;48.770;9.156;2024-03-02T08:37:38;7.50;1.00
1626;DHT22;806;48.770;9.156;2024-03-02T08:40:08;7.50;1.00
1626;DHT22;806;48.770;9.156;2024-03-02T08:42:36;7.60;1.00
1626;DHT22;806;48.770;9.156;2024-03-02T08:45:03;7.70;1.00
1626;DHT22;806;48.770;9.156;2024-03-02T08:47:30;7.80;1.00
1626;DHT22;806;48.770;9.156;2024-03-02T08:49:57;7.90;1.00
1626;DHT22;806;48.770;9.156;2024-03-02T08:52:24;8.00;1.00
1626;DHT22;806;48.770;9.156;2024-03-02T08:54:50;8.10;1.00
1626;DHT22;806;48.770;9.156;2024-03-02T08:57:19;8.20;1.00
1626;DHT22;806;48.770;9.156;2024-03-02T08:59:45;8.30;1.00
1626;DHT22;806;48.770;9.156;2024-03-02T09:02:12;8.30;99.90
1626;DHT22;806;48.770;9.156;2024-03-02T09:04:39;8.40;99.90
1626;DHT22;806;48.770;9.156;2024-03-02T09:07:06;8.50;99.90
1626;DHT22;806;48.770;9.156;2024-03-02T09:09:36;8.60;1.00
1626;DHT22;806;48.770;9.156;2024-03-02T09:12:04;8.70;1.00
1626;DHT22;806;48.770;9.156;2024-03-02T09:14:33;8.70;1.00
1626;DHT22;806;48.770;9.156;2024-03-02T09:17:00;8.80;99.90
1626;DHT22;806;48.770;9.156;2024-03-02T09:19:28;8.90;1.00
1626;DHT22;806;48.770;9.156;2024-03-02T09:21:54;9.00;99.90
1626;DHT22;806;48.770;9.156;2024-03-02T09:24:24;9.10;99.90
1626;DHT22;806;48.770;9.156;2024-03-02T09:26:51;9.10;99.90
1626;DHT22;806;48.770;9.156;2024-03-02T09:29:18;9.20;1.00
1626;DHT22;806;48.770;9.156;2024-03-02T09:31:47;9.40;99.90
1626;DHT22;806;48.770;9.156;2024-03-02T09:34:15;9.40;1.00
1626;DHT22;806;48.770;9.156;2024-03-02T09:36:42;9.50;99.90
1626;DHT22;806;48.770;9.156;2024-03-02T09:39:09;9.50;1.00
1626;DHT22;806;48.770;9.156;2024-03-02T09:41:36;9.60;99.90
1626;DHT22;806;48.770;9.156;2024-03-02T09:44:04;9.70;1.00
1626;DHT22;806;48.770;9.156;2024-03-02T09:46:31;9.80;1.00
1626;DHT22;806;48.770;9.156;2024-03-02T09:49:00;9.90;1.00
1626;DHT22;806;48.770;9.156;2024-03-02T09:51:27;10.10;99.90
1626;DHT22;806;48.770;9.156;2024-03-02T09:53:55;10.20;99.90
1626;DHT22;806;48.770;9.156;2024-03-02T09:56:22;10.40;99.90
1626;DHT22;806;48.770;9.156;2024-03-02T09:58:49;10.40;1.00
1626;DHT22;806;48.770;9.156;2024-03-02T10:01:16;10.60;1.00
1626;DHT22;806;48.770;9.156;2024-03-02T10:03:44;10.70;1.00
1626;DHT22;806;48.770;9.156;2024-03-02T10:06:20;10.90;1.00
1626;DHT22;806;48.770;9.156;2024-03-02T10:08:48;11.00;1.00
1626;DHT22;806;48.770;9.156;2024-03-02T10:11:26;11.10;1.00
1626;DHT22;806;48.770;9.156;2024-03-02T10:14:07;11.20;99.90
1626;DHT22;806;48.770;9.156;2024-03-02T10:16:36;11.40;99.90
1626;DHT22;806;48.770;9.156;2024-03-02T10:19:16;11.50;99.90
1626;DHT22;806;48.770;9.156;2024-03-02T10:21:45;11.70;99.90
1626;DHT22;806;48.770;9.156;2024-03-02T10:24:12;11.90;99.90
1626;DHT22;806;48.770;9.156;2024-03-02T10:26:42;12.10;99.90
1626;DHT22;806;48.770;9.156;2024-03-02T10:29:11;12.10;99.90
1626;DHT22;806;48.770;9.156;2024-03-02T10:31:39;12.30;99.90
1626;DHT22;806;48.770;9.156;2024-03-02T10:34:07;12.50;99.90
1626;DHT22;806;48.770;9.156;2024-03-02T10:36:34;12.60;99.90
1626;DHT22;806;48.770;9.156;2024-03-02T10:39:04;12.70;99.90
1626;DHT22;806;48.770;9.156;2024-03-02T10:41:33;13.00;99.90
1626;DHT22;806;48.770;9.156;2024-03-02T10:44:03;13.10;90.80
1626;DHT22;806;48.770;9.156;2024-03-02T10:46:31;13.30;55.00
1626;DHT22;806;48.770;9.156;2024-03-02T10:49:02;13.40;80.10
1626;DHT22;806;48.770;9.156;2024-03-02T10:51:30;13.60;33.80
1626;DHT22;806;48.770;9.156;2024-03-02T10:53:58;13.90;20.30
1626;DHT22;806;48.770;9.156;2024-03-02T10:56:29;14.00;1.00
1626;DHT22;806;48.770;9.156;2024-03-02T10:59:02;14.00;1.00
1626;DHT22;806;48.770;9.156;2024-03-02T11:01:30;14.20;1.00
1626;DHT22;806;48.770;9.156;2024-03-02T11:03:59;14.30;1.00
1626;DHT22;806;48.770;9.156;2024-03-02T11:06:29;14.20;1.00
1626;DHT22;806;48.770;9.156;2024-03-02T11:09:00;14.30;1.00
1626;DHT22;806;48.770;9.156;2024-03-02T11:11:37;14.20;1.00
1626;DHT22;806;48.770;9.156;2024-03-02T11:14:07;14.00;1.00
1626;DHT22;806;48.770;9.156;2024-03-02T11:16:37;14.30;1.00
1626;DHT22;806;48.770;9.156;2024-03-02T11:19:08;14.60;1.00
1626;DHT22;806;48.770;9.156;2024-03-02T11:21:36;14.90;1.00
1626;DHT22;806;48.770;9.156;2024-03-02T11:24:28;15.00;1.00
1626;DHT22;806;48.770;9.156;2024-03-02T11:27:00;15.00;1.00
1626;DHT22;806;48.770;9.156;2024-03-02T11:29:46;15.20;1.00
1626;DHT22;806;48.770;9.156;2024-03-02T11:32:15;15.40;1.00
1626;DHT22;806;48.770;9.156;2024-03-02T11:34:46;15.40;1.00
1626;DHT22;806;48.770;9.156;2024-03-02T11:37:15;15.40;1.00
1626;DHT22;806;48.770;9.156;2024-03-02T11:39:46;15.50;1.00
1626;DHT22;806;48.770;9.156;2024-03-02T11:42:15;15.40;1.00
1626;DHT22;806;48.770;9.156;2024-03-02T11:44:44;15.30;1.00
1626;DHT22;806;48.770;9.156;2024-03-02T11:47:14;15.30;1.00
1626;DHT22;806;48.770;9.156;2024-03-02T11:49:43;15.40;1.00
1626;DHT22;806;48.770;9.156;2024-03-02T11:52:11;15.40;1.00
1626;DHT22;806;48.770;9.156;2024-03-02T11:54:40;15.40;1.00
1626;DHT22;806;48.770;9.156;2024-03-02T11:57:14;15.40;1.00
1626;DHT22;806;48.770;9.156;2024-03-02T11:59:41;15.40;1.00
1626;DHT22;806;48.770;9.156;2024-03-02T12:02:14;15.50;1.00
1626;DHT22;806;48.770;9.156;2024-03-02T12:04:42;15.50;1.00
1626;DHT22;806;48.770;9.156;2024-03-02T12:07:10;15.50;1.00
1626;DHT22;806;48.770;9.156;2024-03-02T12:09:37;15.70;1.00
1626;DHT22;806;48.770;9.156;2024-03-02T12:12:05;15.80;1.00
1626;DHT22;806;48.770;9.156;2024-03-02T12:14:35;16.00;1.00
1626;DHT22;806;48.770;9.156;2024-03-02T12:17:03;16.20;1.00
1626;DHT22;806;48.770;9.156;2024-03-02T12:19:31;16.40;1.00
1626;DHT22;806;48.770;9.156;2024-03-02T12:21:59;16.50;1.00
1626;DHT22;806;48.770;9.156;2024-03-02T12:24:28;16.40;1.00
1626;DHT22;806;48.770;9.156;2024-03-02T12:26:55;16.50;1.00
1626;DHT22;806;48.770;9.156;2024-03-02T12:29:23;16.40;1.00
1626;DHT22;806;48.770;9.156;2024-03-02T12:31:52;16.40;1.00
1626;DHT22;806;48.770;9.156;2024-03-02T12:34:20;16.50;1.00
1626;DHT22;806;48.770;9.156;2024-03-02T12:36:48;16.10;1.00
1626;DHT22;806;48.770;9.156;2024-03-02T12:39:19;16.40;1.00
1626;DHT22;806;48.770;9.156;2024-03-02T12:41:46;16.50;1.00
1626;DHT22;806;48.770;9.156;2024-03-02T12:44:16;16.50;1.00
1626;DHT22;806;48.770;9.156;2024-03-02T12:46:45;16.50;1.00
1626;DHT22;806;48.770;9.156;2024-03-02T12:49:14;16.40;1.00
1626;DHT22;806;48.770;9.156;2024-03-02T12:51:43;16.60;1.00
1626;DHT22;806;48.770;9.156;2024-03-02T12:54:12;16.60;1.00
1626;DHT22;806;48.770;9.156;2024-03-02T12:56:41;16.70;1.00
1626;DHT22;806;48.770;9.156;2024-03-02T12:59:17;16.60;1.00
1626;DHT22;806;48.770;9.156;2024-03-02T13:01:50;16.70;1.00
1626;DHT22;806;48.770;9.156;2024-03-02T13:04:21;16.70;1.00
1626;DHT22;806;48.770;9.156;2024-03-02T13:06:48;16.60;1.00
1626;DHT22;806;48.770;9.156;2024-03-02T13:09:17;16.50;1.00
1626;DHT22;806;48.770;9.156;2024-03-02T13:11:50;16.40;1.00
1626;DHT22;806;48.770;9.156;2024-03-02T13:14:16;16.50;1.00
1626;DHT22;806;48.770;9.156;2024-03-02T13:16:44;16.50;1.00
1626;DHT22;806;48.770;9.156;2024-03-02T13:19:12;16.40;1.00
1626;DHT22;806;48.770;9.156;2024-03-02T13:21:40;16.20;1.00
1626;DHT22;806;48.770;9.156;2024-03-02T13:24:07;16.00;1.00
1626;DHT22;806;48.770;9.156;2024-03-02T13:26:34;16.00;1.00
1626;DHT22;806;48.770;9.156;2024-03-02T13:29:04;16.20;1.00
1626;DHT22;806;48.770;9.156;2024-03-02T13:31:31;16.00;1.00
1626;DHT22;806;48.770;9.156;2024-03-02T13:33:58;16.00;1.00
1626;DHT22;806;48.770;9.156;2024-03-02T13:36:25;15.90;1.00
1626;DHT22;806;48.770;9.156;2024-03-02T13:38:55;15.80;1.00
1626;DHT22;806;48.770;9.156;2024-03-02T13:41:23;15.90;1.00
1626;DHT22;806;48.770;9.156;2024-03-02T13:43:50;15.90;1.00
1626;DHT22;806;48.770;9.156;2024-03-02T13:46:17;16.00;1.00
1626;DHT22;806;48.770;9.156;2024-03-02T13:48:44;16.00;1.00
1626;DHT22;806;48.770;9.156;2024-03-02T13:51:11;15.90;1.00
1626;DHT22;806;48.770;9.156;2024-03-02T13:53:38;15.90;1.00
1626;DHT22;806;48.770;9.156;2024-03-02T13:56:07;15.90;1.00
1626;DHT22;806;48.770;9.156;2024-03-02T13:58:34;15.90;1.00
1626;DHT22;806;48.770;9.156;2024-03-02T14:01:01;15.80;1.00
1626;DHT22;806;48.770;9.156;2024-03-02T14:03:30;15.70;1.00
1626;DHT22;806;48.770;9.156;2024-03-02T14:05:57;15.70;1.00
1626;DHT22;806;48.770;9.156;2024-03-02T14:08:26;15.70;1.00
1626;DHT22;806;48.770;9.156;2024-03-02T14:10:54;15.80;1.00
1626;DHT22;806;48.770;9.156;2024-03-02T14:13:22;15.90;1.00
1626;DHT22;806;48.770;9.156;2024-03-02T14:15:50;15.80;1.00
1626;DHT22;806;48.770;9.156;2024-03-02T14:18:21;15.90;1.00
1626;DHT22;806;48.770;9.156;2024-03-02T14:20:48;15.80;1.00
1626;DHT22;806;48.770;9.156;2024-03-02T14:23:21;15.80;1.00
1626;DHT22;806;48.770;9.156;2024-03-02T14:25:48;15.80;1.00
1626;DHT22;806;48.770;9.156;2024-03-02T14:28:15;15.80;1.00
1626;DHT22;806;48.770;9.156;2024-03-02T14:30:45;15.70;1.00
1626;DHT22;806;48.770;9.156;2024-03-02T14:33:12;15.60;1.00
1626;DHT22;806;48.770;9.156;2024-03-02T14:35:39;15.60;1.00
1626;DHT22;806;48.770;9.156;2024-03-02T14:38:06;15.50;1.00
1626;DHT22;806;48.770;9.156;2024-03-02T14:40:33;15.60;1.00
1626;DHT22;806;48.770;9.156;2024-03-02T14:43:00;15.60;1.00
1626;DHT22;806;48.770;9.156;2024-03-02T14:45:27;15.70;1.00
1626;DHT22;806;48.770;9.156;2024-03-02T14:47:56;15.70;1.00
1626;DHT22;806;48.770;9.156;2024-03-02T14:50:25;15.80;1.00
1626;DHT22;806;48.770;9.156;2024-03-02T14:52:52;15.70;1.00
1626;DHT22;806;48.770;9.156;2024-03-02T14:55:18;15.70;1.00
1626;DHT22;806;48.770;9.156;2024-03-02T14:57:46;15.60;1.00
1626;DHT22;806;48.770;9.156;2024-03-02T15:00:13;15.50;1.00
1626;DHT22;806;48.770;9.156;2024-03-02T15:02:40;15.40;1.00
1626;DHT22;806;48.770;9.156;2024-03-02T15:05:08;15.40;1.00
1626;DHT22;806;48.770;9.156;2024-03-02T15:07:35;15.40;1.00
1626;DHT22;806;48.770;9.156;2024-03-02T15:10:02;15.40;1.00
1626;DHT22;806;48.770;9.156;2024-03-02T15:12:29;15.40;1.00
1626;DHT22;806;48.770;9.156;2024-03-02T15:14:56;15.40;1.00
1626;DHT22;806;48.770;9.156;2024-03-02T15:17:24;15.30;1.00
1626;DHT22;806;48.770;9.156;2024-03-02T15:19:51;15.30;1.00
1626;DHT22;806;48.770;9.156;2024-03-02T15:22:19;15.10;1.00
1626;DHT22;806;48.770;9.156;2024-03-02T15:24:46;15.00;1.00
1626;DHT22;806;48.770;9.156;2024-03-02T15:27:16;15.00;1.00
1626;DHT22;806;48.770;9.156;2024-03-02T15:29:43;14.90;1.00
1626;DHT22;806;48.770;9.156;2024-03-02T15:32:10;14.90;1.00
1626;DHT22;806;48.770;9.156;2024-03-02T15:34:37;14.80;1.00
1626;DHT22;806;48.770;9.156;2024-03-02T15:37:04;14.80;1.00
1626;DHT22;806;48.770;9.156;2024-03-02T15:39:32;14.70;1.00
1626;DHT22;806;48.770;9.156;2024-03-02T15:41:59;14.70;1.00
1626;DHT22;806;48.770;9.156;2024-03-02T15:44:27;14.70;1.00
1626;DHT22;806;48.770;9.156;2024-03-02T15:46:54;14.70;1.00
1626;DHT22;806;48.770;9.156;2024-03-02T15:49:22;14.60;1.00
1626;DHT22;806;48.770;9.156;2024-03-02T15:51:49;14.60;1.00
1626;DHT22;806;48.770;9.156;2024-03-02T15:54:16;14.60;1.00
1626;DHT22;806;48.770;9.156;2024-03-02T15:56:44;14.50;1.00
1626;DHT22;806;48.770;9.156;2024-03-02T15:59:11;14.40;1.00
1626;DHT22;806;48.770;9.156;2024-03-02T16:01:39;14.40;1.00
1626;DHT22;806;48.770;9.156;2024-03-02T16:04:07;14.30;1.00
1626;DHT22;806;48.770;9.156;2024-03-02T16:06:34;14.20;1.00
1626;DHT22;806;48.770;9.156;2024-03-02T16:09:01;14.20;1.00
1626;DHT22;806;48.770;9.156;2024-03-02T16:11:30;14.10;1.00
1626;DHT22;806;48.770;9.156;2024-03-02T16:13:58;14.10;1.00
1626;DHT22;806;48.770;9.156;2024-03-02T16:16:25;14.00;1.00
1626;DHT22;806;48.770;9.156;2024-03-02T16:18:52;14.00;1.00
1626;DHT22;806;48.770;9.156;2024-03-02T16:21:19;13.90;1.00
1626;DHT22;806;48.770;9.156;2024-03-02T16:23:50;13.80;1.00
1626;DHT22;806;48.770;9.156;2024-03-02T16:26:17;13.80;1.00
1626;DHT22;806;48.770;9.156;2024-03-02T16:28:44;13.80;1.00
1626;DHT22;806;48.770;9.156;2024-03-02T16:31:16;13.70;1.00
1626;DHT22;806;48.770;9.156;2024-03-02T16:33:44;13.70;1.00
1626;DHT22;806;48.770;9.156;2024-03-02T16:36:10;13.70;1.00
1626;DHT22;806;48.770;9.156;2024-03-02T16:38:37;13.70;1.00
1626;DHT22;806;48.770;9.156;2024-03-02T16:41:06;13.70;1.00
1626;DHT22;806;48.770;9.156;2024-03-02T16:43:33;13.60;1.00